sensor_id;sensor_type;location;lat;lon;timestamp;pressure;altitude;pressure_sealevel;temperature;humidity
55311;BME280;41173;52.634;-8.666;2024-02-21T16:44:34;146366.72;;;10.13;100.00
55311;BME280;41173;52.634;-8.666;2024-02-21T16:47:00;146389.63;;;10.23;100.00
55311;BME280;41173;52.634;-8.666;2024-02-21T16:49:26;146382.00;;;10.20;100.00
55311;BME280;41173;52.634;-8.666;2024-02-21T16:51:51;145752.53;;;10.24;100.00
55311;BME280;41173;52.634;-8.666;2024-02-21T16:54:26;144958.72;;;10.26;100.00
55311;BME280;41173;52.634;-8.666;2024-02-21T16:56:51;144739.78;;;10.23;100.00
55311;BME280;41173;52.634;-8.666;2024-02-21T16:59:17;145778.53;;;10.19;100.00
55311;BME280;41173;52.634;-8.666;2024-02-21T17:01:43;145541.25;;;10.24;100.00
55311;BME280;41173;52.634;-8.666;2024-02-21T17:04:10;145456.66;;;10.30;100.00
55311;BME280;41173;52.634;-8.666;2024-02-21T17:06:36;145267.41;;;10.24;100.00
55311;BME280;41173;52.634;-8.666;2024-02-21T17:09:02;143047.91;;;10.25;100.00
55311;BME280;41173;52.634;-8.666;2024-02-21T17:11:28;141182.38;;;10.21;100.00
55311;BME280;41173;52.634;-8.666;2024-02-21T17:13:54;138239.09;;;10.11;100.00
55311;BME280;41173;52.634;-8.666;2024-02-21T17:16:20;136068.09;;;10.05;100.00
55311;BME280;41173;52.634;-8.666;2024-02-21T17:18:45;134455.53;;;10.03;100.00
55311;BME280;41173;52.634;-8.666;2024-02-21T17:21:12;131684.13;;;10.02;100.00
55311;BME280;41173;52.634;-8.666;2024-02-21T17:23:38;129776.97;;;10.03;100.00
55311;BME280;41173;52.634;-8.666;2024-02-21T17:26:05;127132.03;;;10.01;100.00
55311;BME280;41173;52.634;-8.666;2024-02-21T17:28:31;124241.50;;;10.11;100.00
55311;BME280;41173;52.634;-8.666;2024-02-21T17:30:57;123602.94;;;10.20;100.00
55311;BME280;41173;52.634;-8.666;2024-02-21T17:33:22;120367.00;;;10.08;100.00
55311;BME280;41173;52.634;-8.666;2024-02-21T17:35:48;117571.97;;;10.14;100.00
55311;BME280;41173;52.634;-8.666;2024-02-21T17:38:15;116848.19;;;9.96;100.00
55311;BME280;41173;52.634;-8.666;2024-02-21T17:40:41;114120.66;;;10.02;100.00
55311;BME280;41173;52.634;-8.666;2024-02-21T17:43:06;112285.88;;;10.05;100.00
55311;BME280;41173;52.634;-8.666;2024-02-21T17:45:31;107648.16;;;10.05;100.00
55311;BME280;41173;52.634;-8.666;2024-02-21T17:47:57;103296.66;;;10.11;100.00
55311;BME280;41173;52.634;-8.666;2024-02-21T17:50:23;100667.34;;;10.10;100.00
55311;BME280;41173;52.634;-8.666;2024-02-21T17:52:48;103168.78;;;10.14;100.00
55311;BME280;41173;52.634;-8.666;2024-02-21T17:55:14;101899.84;;;10.11;100.00
55311;BME280;41173;52.634;-8.666;2024-02-21T17:57:40;100454.41;;;10.11;100.00
55311;BME280;41173;52.634;-8.666;2024-02-21T18:00:06;97928.53;;;10.13;100.00
55311;BME280;41173;52.634;-8.666;2024-02-21T18:02:37;96703.34;;;10.14;100.00
55311;BME280;41173;52.634;-8.666;2024-02-21T18:05:02;101595.88;;;10.21;100.00
55311;BME280;41173;52.634;-8.666;2024-02-21T18:07:29;110974.16;;;10.21;100.00
55311;BME280;41173;52.634;-8.666;2024-02-21T18:09:55;117410.22;;;10.24;100.00
55311;BME280;41173;52.634;-8.666;2024-02-21T18:12:21;123621.84;;;10.16;100.00
55311;BME280;41173;52.634;-8.666;2024-02-21T18:14:46;127820.03;;;10.11;100.00
55311;BME280;41173;52.634;-8.666;2024-02-21T18:17:12;127935.69;;;9.93;100.00
55311;BME280;41173;52.634;-8.666;2024-02-21T18:19:40;127765.47;;;9.95;100.00
55311;BME280;41173;52.634;-8.666;2024-02-21T18:22:05;129142.00;;;9.98;100.00
55311;BME280;41173;52.634;-8.666;2024-02-21T18:24:32;132554.22;;;9.90;100.00
55311;BME280;41173;52.634;-8.666;2024-02-21T18:26:58;134327.72;;;9.87;100.00
55311;BME280;41173;52.634;-8.666;2024-02-21T18:29:24;135402.59;;;9.87;100.00
55311;BME280;41173;52.634;-8.666;2024-02-21T18:31:51;136981.66;;;9.81;100.00
55311;BME280;41173;52.634;-8.666;2024-02-21T18:34:17;137322.38;;;9.86;100.00
55311;BME280;41173;52.634;-8.666;2024-02-21T18:36:43;137268.81;;;9.88;100.00
55311;BME280;41173;52.634;-8.666;2024-02-21T18:39:09;139469.34;;;9.93;100.00
55311;BME280;41173;52.634;-8.666;2024-02-21T18:41:36;141601.03;;;9.84;100.00
55311;BME280;41173;52.634;-8.666;2024-02-21T18:44:02;143995.19;;;9.73;100.00
55311;BME280;41173;52.634;-8.666;2024-02-21T18:46:28;143026.88;;;9.75;100.00
55311;BME280;41173;52.634;-8.666;2024-02-21T18:48:54;140546.56;;;9.75;100.00
55311;BME280;41173;52.634;-8.666;2024-02-21T18:51:19;140634.91;;;9.77;100.00
55311;BME280;41173;52.634;-8.666;2024-02-21T18:53:45;140482.75;;;9.63;100.00
55311;BME280;41173;52.634;-8.666;2024-02-21T18:56:11;136107.75;;;9.63;100.00
55311;BME280;41173;52.634;-8.666;2024-02-21T18:58:37;133540.53;;;9.54;100.00
55311;BME280;41173;52.634;-8.666;2024-02-21T19:01:02;133169.00;;;9.69;100.00
55311;BME280;41173;52.634;-8.666;2024-02-21T19:03:28;133624.78;;;9.73;100.00
55311;BME280;41173;52.634;-8.666;2024-02-21T19:05:54;134825.53;;;9.71;100.00
55311;BME280;41173;52.634;-8.666;2024-02-21T19:08:20;134130.63;;;9.65;100.00
55311;BME280;41173;52.634;-8.666;2024-02-21T19:10:45;135309.88;;;9.59;100.00
55311;BME280;41173;52.634;-8.666;2024-02-21T19:13:10;136051.28;;;9.70;100.00
55311;BME280;41173;52.634;-8.666;2024-02-21T19:15:37;137260.19;;;9.75;100.00
55311;BME280;41173;52.634;-8.666;2024-02-21T19:18:06;136389.28;;;9.65;100.00
55311;BME280;41173;52.634;-8.666;2024-02-21T19:20:31;134990.97;;;9.76;100.00
55311;BME280;41173;52.634;-8.666;2024-02-21T19:22:57;134972.97;;;9.74;100.00
55311;BME280;41173;52.634;-8.666;2024-02-21T19:25:22;134805.25;;;9.68;100.00
55311;BME280;41173;52.634;-8.666;2024-02-21T19:27:48;133796.41;;;9.70;100.00
55311;BME280;41173;52.634;-8.666;2024-02-21T19:30:14;133267.47;;;9.72;100.00
55311;BME280;41173;52.634;-8.666;2024-02-21T19:32:39;131377.66;;;9.58;100.00
55311;BME280;41173;52.634;-8.666;2024-02-21T19:35:05;132494.59;;;9.63;100.00
55311;BME280;41173;52.634;-8.666;2024-02-21T19:37:31;132084.75;;;9.69;100.00
55311;BME280;41173;52.634;-8.666;2024-02-21T19:39:57;130394.66;;;9.61;100.00
55311;BME280;41173;52.634;-8.666;2024-02-21T19:42:23;129831.34;;;9.71;100.00
55311;BME280;41173;52.634;-8.666;2024-02-21T19:44:48;132189.06;;;9.66;100.00
55311;BME280;41173;52.634;-8.666;2024-02-21T19:47:14;130309.63;;;9.66;100.00
55311;BME280;41173;52.634;-8.666;2024-02-21T19:49:40;128430.91;;;9.56;100.00
55311;BME280;41173;52.634;-8.666;2024-02-21T19:52:06;125257.06;;;9.62;100.00
55311;BME280;41173;52.634;-8.666;2024-02-21T19:54:32;124051.75;;;9.68;100.00
55311;BME280;41173;52.634;-8.666;2024-02-21T19:56:57;123780.56;;;9.66;100.00
55311;BME280;41173;52.634;-8.666;2024-02-21T19:59:23;122069.13;;;9.59;100.00
55311;BME280;41173;52.634;-8.666;2024-02-21T20:01:48;119648.59;;;9.61;100.00
55311;BME280;41173;52.634;-8.666;2024-02-21T20:04:16;117911.97;;;9.75;100.00
55311;BME280;41173;52.634;-8.666;2024-02-21T20:06:41;116478.03;;;9.64;100.00
55311;BME280;41173;52.634;-8.666;2024-02-21T20:09:06;111980.03;;;9.55;100.00
55311;BME280;41173;52.634;-8.666;2024-02-21T20:11:33;107589.06;;;9.67;100.00
55311;BME280;41173;52.634;-8.666;2024-02-21T20:13:59;104870.81;;;9.63;100.00
55311;BME280;41173;52.634;-8.666;2024-02-21T20:16:26;100356.84;;;9.70;100.00
55311;BME280;41173;52.634;-8.666;2024-02-21T20:18:52;97631.59;;;9.66;100.00
55311;BME280;41173;52.634;-8.666;2024-02-21T20:21:18;91893.47;;;9.55;100.00
55311;BME280;41173;52.634;-8.666;2024-02-21T20:23:43;89271.22;;;9.40;100.00
55311;BME280;41173;52.634;-8.666;2024-02-21T20:26:09;85911.78;;;9.40;100.00
55311;BME280;41173;52.634;-8.666;2024-02-21T20:28:35;85035.28;;;9.40;100.00
55311;BME280;41173;52.634;-8.666;2024-02-21T20:31:01;87883.38;;;9.54;100.00
55311;BME280;41173;52.634;-8.666;2024-02-21T20:33:26;97903.94;;;9.60;100.00
55311;BME280;41173;52.634;-8.666;2024-02-21T20:35:52;110327.19;;;9.67;100.00
55311;BME280;41173;52.634;-8.666;2024-02-21T20:38:18;123197.31;;;9.70;100.00
55311;BME280;41173;52.634;-8.666;2024-02-21T20:40:43;134483.41;;;9.72;100.00
55311;BME280;41173;52.634;-8.666;2024-02-21T20:43:11;140829.72;;;9.66;100.00
55311;BME280;41173;52.634;-8.666;2024-02-21T20:45:36;145591.13;;;9.65;100.00
55311;BME280;41173;52.634;-8.666;2024-02-21T20:48:07;146233.31;;;9.59;100.00
55311;BME280;41173;52.634;-8.666;2024-02-21T20:50:32;146225.69;;;9.56;100.00
55311;BME280;41173;52.634;-8.666;2024-02-21T20:52:58;146237.13;;;9.61;100.00
55311;BME280;41173;52.634;-8.666;2024-02-21T20:55:26;146220.63;;;9.54;100.00
55311;BME280;41173;52.634;-8.666;2024-02-21T20:57:52;146220.63;;;9.54;100.00
55311;BME280;41173;52.634;-8.666;2024-02-21T21:00:18;146181.25;;;9.38;100.00
55311;BME280;41173;52.634;-8.666;2024-02-21T21:02:46;146176.19;;;9.36;100.00
55311;BME280;41173;52.634;-8.666;2024-02-21T21:05:12;146195.22;;;9.44;100.00
55311;BME280;41173;52.634;-8.666;2024-02-21T21:07:37;146178.69;;;9.37;100.00
55311;BME280;41173;52.634;-8.666;2024-02-21T21:10:04;146204.09;;;9.48;100.00
55311;BME280;41173;52.634;-8.666;2024-02-21T21:12:29;146185.06;;;9.40;100.00
55311;BME280;41173;52.634;-8.666;2024-02-21T21:14:56;146181.25;;;9.38;100.00
55311;BME280;41173;52.634;-8.666;2024-02-21T21:17:22;146171.09;;;9.34;100.00
55311;BME280;41173;52.634;-8.666;2024-02-21T21:19:47;146178.69;;;9.37;100.00
55311;BME280;41173;52.634;-8.666;2024-02-21T21:22:15;146146.97;;;9.25;100.00
55311;BME280;41173;52.634;-8.666;2024-02-21T21:24:41;146146.97;;;9.25;100.00
55311;BME280;41173;52.634;-8.666;2024-02-21T21:27:06;146138.06;;;9.21;100.00
55311;BME280;41173;52.634;-8.666;2024-02-21T21:29:32;146155.84;;;9.28;100.00
55311;BME280;41173;52.634;-8.666;2024-02-21T21:32:00;146163.47;;;9.31;100.00
55311;BME280;41173;52.634;-8.666;2024-02-21T21:34:25;146136.81;;;9.20;100.00
55311;BME280;41173;52.634;-8.666;2024-02-21T21:36:52;146106.28;;;9.08;100.00
55311;BME280;41173;52.634;-8.666;2024-02-21T21:39:17;146130.44;;;9.18;100.00
55311;BME280;41173;52.634;-8.666;2024-02-21T21:41:43;146124.13;;;9.15;100.00
55311;BME280;41173;52.634;-8.666;2024-02-21T21:44:09;146134.25;;;9.19;100.00
55311;BME280;41173;52.634;-8.666;2024-02-21T21:46:35;146110.09;;;9.10;100.00
55311;BME280;41173;52.634;-8.666;2024-02-21T21:49:04;146092.34;;;9.02;100.00
55311;BME280;41173;52.634;-8.666;2024-02-21T21:51:30;146099.97;;;9.06;100.00
55311;BME280;41173;52.634;-8.666;2024-02-21T21:53:56;146082.22;;;8.98;100.00
55311;BME280;41173;52.634;-8.666;2024-02-21T21:56:22;146086.03;;;9.00;100.00
55311;BME280;41173;52.634;-8.666;2024-02-21T21:58:48;146079.66;;;8.97;100.00
55311;BME280;41173;52.634;-8.666;2024-02-21T22:01:14;146101.22;;;9.06;100.00
55311;BME280;41173;52.634;-8.666;2024-02-21T22:03:40;146102.47;;;9.07;100.00
55311;BME280;41173;52.634;-8.666;2024-02-21T22:06:06;145748.84;;;9.01;100.00
55311;BME280;41173;52.634;-8.666;2024-02-21T22:08:32;140470.34;;;9.19;100.00
55311;BME280;41173;52.634;-8.666;2024-02-21T22:10:57;137626.53;;;9.15;100.00
55311;BME280;41173;52.634;-8.666;2024-02-21T22:13:23;132233.84;;;9.23;100.00
55311;BME280;41173;52.634;-8.666;2024-02-21T22:15:49;130343.97;;;9.48;100.00
55311;BME280;41173;52.634;-8.666;2024-02-21T22:18:14;129212.72;;;9.35;100.00
55311;BME280;41173;52.634;-8.666;2024-02-21T22:20:40;120949.59;;;9.31;100.00
55311;BME280;41173;52.634;-8.666;2024-02-21T22:23:06;110732.59;;;9.01;100.00
55311;BME280;41173;52.634;-8.666;2024-02-21T22:25:32;94371.88;;;9.09;100.00
55311;BME280;41173;52.634;-8.666;2024-02-21T22:27:58;86159.25;;;9.25;100.00
55311;BME280;41173;52.634;-8.666;2024-02-21T22:30:24;82087.38;;;9.27;100.00
55311;BME280;41173;52.634;-8.666;2024-02-21T22:32:50;78377.75;;;9.03;100.00
55311;BME280;41173;52.634;-8.666;2024-02-21T22:35:16;77374.84;;;9.03;100.00
55311;BME280;41173;52.634;-8.666;2024-02-21T22:37:42;71704.19;;;9.06;100.00
55311;BME280;41173;52.634;-8.666;2024-02-21T22:40:08;68017.13;;;8.90;100.00
55311;BME280;41173;52.634;-8.666;2024-02-21T22:42:34;61023.22;;;8.87;100.00
55311;BME280;41173;52.634;-8.666;2024-02-21T22:45:00;54707.31;;;8.84;100.00
55311;BME280;41173;52.634;-8.666;2024-02-21T22:47:25;50387.66;;;8.78;100.00
55311;BME280;41173;52.634;-8.666;2024-02-21T22:49:52;47082.13;;;8.90;100.00
55311;BME280;41173;52.634;-8.666;2024-02-21T22:52:17;44100.03;;;8.89;100.00
55311;BME280;41173;52.634;-8.666;2024-02-21T22:54:43;41780.19;;;8.86;100.00
55311;BME280;41173;52.634;-8.666;2024-02-21T22:57:08;38805.94;;;8.91;100.00
55311;BME280;41173;52.634;-8.666;2024-02-21T22:59:34;38464.78;;;8.76;100.00
55311;BME280;41173;52.634;-8.666;2024-02-21T23:02:00;36153.47;;;8.79;100.00
55311;BME280;41173;52.634;-8.666;2024-02-21T23:04:25;34500.25;;;8.77;100.00
55311;BME280;41173;52.634;-8.666;2024-02-21T23:06:50;33844.19;;;8.84;100.00
55311;BME280;41173;52.634;-8.666;2024-02-21T23:09:16;34173.84;;;8.83;100.00
55311;BME280;41173;52.634;-8.666;2024-02-21T23:11:43;35487.25;;;8.71;100.00
55311;BME280;41173;52.634;-8.666;2024-02-21T23:14:09;35163.56;;;8.81;100.00
55311;BME280;41173;52.634;-8.666;2024-02-21T23:16:34;34492.72;;;8.65;100.00
55311;BME280;41173;52.634;-8.666;2024-02-21T23:19:00;33172.94;;;8.67;100.00
55311;BME280;41173;52.634;-8.666;2024-02-21T23:21:25;31523.22;;;8.68;100.00
55311;BME280;41173;52.634;-8.666;2024-02-21T23:23:51;30530.41;;;8.63;100.00
55311;BME280;41173;52.634;-8.666;2024-02-21T23:26:27;28553.50;;;8.66;100.00
55311;BME280;41173;52.634;-8.666;2024-02-21T23:28:56;29539.13;;;8.60;100.00
